createdAt,value
2024-03-16T00:00:43.543Z,4.02
2024-03-16T00:03:46.448Z,4.14
2024-03-16T00:06:48.921Z,4.13
2024-03-16T00:09:51.414Z,4.02
2024-03-16T00:12:53.937Z,4.02
2024-03-16T00:15:57.561Z,3.94
2024-03-16T00:19:00.153Z,3.82
2024-03-16T00:22:02.638Z,3.96
2024-03-16T00:25:06.245Z,3.96
2024-03-16T00:28:08.736Z,3.83
2024-03-16T00:31:11.315Z,3.85
2024-03-16T00:34:14.467Z,3.76
2024-03-16T00:37:16.910Z,3.94
2024-03-16T00:40:20.778Z,3.72
2024-03-16T00:43:24.279Z,3.35
2024-03-16T00:46:26.810Z,3.44
2024-03-16T00:49:29.281Z,3.35
2024-03-16T00:52:31.685Z,3.21
2024-03-16T00:55:36.811Z,2.96
2024-03-16T00:58:39.282Z,2.99
2024-03-16T01:01:41.711Z,2.99
2024-03-16T01:04:44.103Z,3.21
2024-03-16T01:07:46.500Z,3.11
2024-03-16T01:10:57.761Z,3.25
2024-03-16T01:14:00.202Z,3.10
2024-03-16T01:17:03.443Z,3.00
2024-03-16T01:20:08.371Z,2.90
2024-03-16T01:23:14.347Z,2.95
2024-03-16T01:26:16.760Z,2.97
2024-03-16T01:29:19.100Z,3.06
2024-03-16T01:32:21.487Z,3.08
2024-03-16T01:35:23.819Z,3.11
2024-03-16T01:38:26.200Z,3.10
2024-03-16T01:41:28.580Z,3.08
2024-03-16T01:44:31.276Z,3.14
2024-03-16T01:47:33.742Z,3.02
2024-03-16T01:50:45.880Z,3.10
2024-03-16T01:53:48.231Z,3.11
2024-03-16T01:56:50.579Z,3.02
2024-03-16T01:59:52.961Z,2.86
2024-03-16T02:02:57.910Z,3.05
2024-03-16T02:06:01.166Z,2.94
2024-03-16T02:09:04.030Z,2.80
2024-03-16T02:12:12.311Z,3.06
2024-03-16T02:15:14.971Z,2.97
2024-03-16T02:18:17.548Z,2.90
2024-03-16T02:21:19.939Z,2.75
2024-03-16T02:24:22.366Z,2.79
2024-03-16T02:27:26.257Z,2.65
2024-03-16T02:30:28.710Z,2.80
2024-03-16T02:33:31.103Z,2.84
2024-03-16T02:36:34.158Z,2.94
2024-03-16T02:39:36.923Z,2.92
2024-03-16T02:42:40.954Z,3.07
2024-03-16T02:45:43.471Z,2.96
2024-03-16T02:48:46.683Z,2.85
2024-03-16T02:51:49.757Z,2.68
2024-03-16T02:54:52.179Z,2.88
2024-03-16T02:57:55.093Z,2.73
2024-03-16T03:00:57.632Z,2.83
2024-03-16T03:04:00.248Z,2.68
2024-03-16T03:07:02.812Z,2.82
2024-03-16T03:10:08.054Z,2.88
2024-03-16T03:13:11.354Z,2.67
2024-03-16T03:16:20.243Z,2.81
2024-03-16T03:19:22.982Z,2.74
2024-03-16T03:22:25.410Z,2.76
2024-03-16T03:25:28.453Z,2.77
2024-03-16T03:28:30.833Z,2.75
2024-03-16T03:31:33.379Z,2.55
2024-03-16T03:34:35.795Z,2.59
2024-03-16T03:37:38.156Z,2.52
2024-03-16T03:40:41.669Z,2.61
2024-03-16T03:43:48.488Z,2.72
2024-03-16T03:46:52.292Z,2.60
2024-03-16T03:49:55.177Z,2.85
2024-03-16T03:53:00.474Z,2.94
2024-03-16T03:56:03.160Z,3.43
2024-03-16T03:59:05.560Z,3.54
2024-03-16T04:02:08.169Z,3.67
2024-03-16T04:05:10.782Z,3.82
2024-03-16T04:08:13.275Z,3.81
2024-03-16T04:11:15.812Z,4.03
2024-03-16T04:14:19.162Z,4.12
2024-03-16T04:17:21.611Z,4.23
2024-03-16T04:20:24.063Z,4.21
2024-03-16T04:23:26.489Z,4.40
2024-03-16T04:26:28.867Z,4.50
2024-03-16T04:29:32.608Z,4.72
2024-03-16T04:32:36.223Z,4.85
2024-03-16T04:35:38.626Z,4.88
2024-03-16T04:38:41.067Z,4.99
2024-03-16T04:41:43.550Z,5.13
2024-03-16T04:44:45.898Z,5.19
2024-03-16T04:47:48.338Z,5.23
2024-03-16T04:50:50.800Z,5.38
2024-03-16T04:53:53.229Z,5.54
2024-03-16T04:56:55.619Z,5.70
2024-03-16T04:59:57.994Z,5.53
2024-03-16T05:03:00.385Z,5.70
2024-03-16T05:06:02.780Z,5.65
2024-03-16T05:09:07.049Z,5.84
2024-03-16T05:12:09.836Z,5.77
2024-03-16T05:15:12.571Z,5.85
2024-03-16T05:18:15.571Z,5.81
2024-03-16T05:21:18.408Z,5.94
2024-03-16T05:24:20.895Z,5.82
2024-03-16T05:27:23.228Z,5.87
2024-03-16T05:30:25.649Z,5.92
2024-03-16T05:33:28.054Z,5.85
2024-03-16T05:36:30.522Z,6.04
2024-03-16T05:39:33.745Z,6.19
2024-03-16T05:42:38.853Z,6.21
2024-03-16T05:45:41.370Z,6.29
2024-03-16T05:48:43.807Z,6.33
2024-03-16T05:51:46.208Z,6.39
2024-03-16T05:54:48.672Z,6.44
2024-03-16T05:57:51.083Z,6.47
2024-03-16T06:00:53.616Z,6.60
2024-03-16T06:03:58.892Z,6.58
2024-03-16T06:07:01.389Z,6.68
2024-03-16T06:10:04.218Z,6.81
2024-03-16T06:13:06.624Z,6.92
2024-03-16T06:16:09.175Z,6.99
2024-03-16T06:19:13.665Z,7.20
2024-03-16T06:22:16.291Z,7.08
2024-03-16T06:25:21.435Z,7.29
2024-03-16T06:28:23.949Z,7.46
2024-03-16T06:31:37.037Z,7.61
2024-03-16T06:34:39.490Z,7.67
2024-03-16T06:37:41.904Z,7.72
2024-03-16T06:40:44.240Z,7.60
2024-03-16T06:43:46.652Z,7.92
2024-03-16T06:46:49.045Z,7.99
2024-03-16T06:49:51.398Z,8.01
2024-03-16T06:52:53.773Z,8.10
2024-03-16T06:55:56.620Z,8.17
2024-03-16T06:59:00.490Z,8.15
2024-03-16T07:02:02.965Z,8.24
2024-03-16T07:05:05.810Z,8.36
2024-03-16T07:08:13.392Z,8.42
2024-03-16T07:11:16.519Z,8.30
2024-03-16T07:14:19.146Z,8.47
2024-03-16T07:17:21.566Z,8.56
2024-03-16T07:20:24.002Z,8.54
2024-03-16T07:23:26.783Z,8.64
2024-03-16T07:26:29.394Z,8.49
2024-03-16T07:29:31.898Z,8.51
2024-03-16T07:32:34.526Z,8.82
2024-03-16T07:35:37.180Z,8.82
2024-03-16T07:38:39.756Z,9.21
2024-03-16T07:41:42.112Z,9.22
2024-03-16T07:44:44.473Z,9.57
2024-03-16T07:47:46.850Z,9.94
2024-03-16T07:50:49.289Z,10.10
2024-03-16T07:53:51.761Z,9.93
2024-03-16T07:56:54.230Z,10.08
2024-03-16T07:59:56.765Z,10.04
2024-03-16T08:02:59.159Z,9.78
2024-03-16T08:06:05.327Z,10.14
2024-03-16T08:09:09.829Z,10.09
2024-03-16T08:12:14.545Z,10.13
2024-03-16T08:15:16.939Z,9.69
2024-03-16T08:18:19.756Z,10.00
2024-03-16T08:21:22.134Z,9.54
2024-03-16T08:24:24.631Z,9.82
2024-03-16T08:27:32.008Z,9.77
2024-03-16T08:30:36.726Z,9.94
2024-03-16T08:33:39.238Z,10.05
2024-03-16T08:36:42.033Z,10.45
2024-03-16T08:39:45.281Z,10.26
2024-03-16T08:42:50.094Z,10.41
2024-03-16T08:45:52.718Z,10.87
2024-03-16T08:48:55.213Z,10.83
2024-03-16T08:51:59.429Z,11.53
2024-03-16T08:55:03.294Z,11.22
2024-03-16T08:58:06.076Z,11.34
2024-03-16T09:01:09.436Z,11.73
2024-03-16T09:04:13.896Z,11.82
2024-03-16T09:07:16.469Z,12.15
2024-03-16T09:10:19.488Z,11.96
2024-03-16T09:13:22.015Z,11.89
2024-03-16T09:16:24.457Z,12.00
2024-03-16T09:19:27.371Z,11.85
2024-03-16T09:22:29.824Z,11.89
2024-03-16T09:25:32.274Z,11.75
2024-03-16T09:28:35.651Z,11.64
2024-03-16T09:31:38.487Z,11.67
2024-03-16T09:34:40.882Z,11.59
2024-03-16T09:37:43.326Z,11.84
2024-03-16T09:40:53.134Z,11.84
